Time;durP1;ratioP1;P1;durP2;ratioP2;P2;SDS_P1;SDS_P2;PMS_P1;PMS_P2;Temp;Humidity;BMP_temperature;BMP_pressure;BME280_temperature;BME280_humidity;BME280_pressure;Samples;Min_cycle;Max_cycle;Signal;HPM_P1;HPM_P2
2021/08/08 00:01:02;;;;;;;;;;;;;;;26.77;37.18;99930.14;464332;111;921502;-72
2021/08/08 00:02:05;;;;;;;;;;;;;;;26.76;37.21;99937.71;463752;114;921473;-73
2021/08/08 00:03:09;;;;;;;;;;;;;;;26.76;37.35;99929.31;463519;112;921531;-73
2021/08/08 00:04:12;;;;;;;;;;;;;;;26.76;37.42;99922.91;464903;112;921453;-73
2021/08/08 00:05:15;;;;;;;;;;;;;;;26.77;37.53;99930.14;463754;114;921441;-73
2021/08/08 00:06:18;;;;;;;;;;;;;;;26.76;37.16;99922.91;464603;111;921490;-73
2021/08/08 00:07:22;;;;;;;;;;;;;;;26.76;37.12;99929.31;463464;113;921488;-73
2021/08/08 00:08:26;;;;;;;;;;;;;;;26.76;36.93;99922.91;463107;115;921559;-72
2021/08/08 00:09:29;;;;;;;;;;;;;;;26.77;36.99;99933.77;462250;112;921527;-73
2021/08/08 00:10:33;;;;;;;;;;;;;;;26.77;36.79;99935.73;463741;114;923121;-73
2021/08/08 00:11:37;;;;;;;;;;;;;;;26.78;36.73;99940.18;463877;112;923321;-72
2021/08/08 00:12:41;;;;;;;;;;;;;;;26.78;36.75;99940.18;463325;114;922698;-72
2021/08/08 00:13:45;;;;;;;;;;;;;;;26.78;36.68;99948.57;462740;112;922657;-73
2021/08/08 00:14:50;;;;;;;;;;;;;;;26.79;36.86;99955.81;464009;114;922966;-73
2021/08/08 00:15:54;;;;;;;;;;;;;;;26.80;37.09;99957.42;463946;114;922580;-72
2021/08/08 00:16:57;;;;;;;;;;;;;;;26.79;37.39;99958.61;464717;114;922522;-72
2021/08/08 00:18:03;;;;;;;;;;;;;;;26.77;37.72;99961.73;463733;114;922646;-70
2021/08/08 00:19:07;;;;;;;;;;;;;;;26.75;37.89;99954.82;462988;112;922493;-70
2021/08/08 00:20:11;;;;;;;;;;;;;;;26.73;38.10;99963.58;464684;114;922688;-71
2021/08/08 00:21:15;;;;;;;;;;;;;;;26.70;38.28;99958.64;463905;110;922575;-70
2021/08/08 00:22:19;;;;;;;;;;;;;;;26.67;38.44;99959.33;464018;114;923068;-71
2021/08/08 00:23:23;;;;;;;;;;;;;;;26.64;37.79;99964.75;462626;114;923101;-71
2021/08/08 00:24:27;;;;;;;;;;;;;;;26.60;37.84;99961.82;463859;115;922665;-70
2021/08/08 00:25:32;;;;;;;;;;;;;;;26.57;37.79;99960.50;463701;114;922693;-70
2021/08/08 00:26:36;;;;;;;;;;;;;;;26.56;37.47;99961.69;463847;114;922606;-71
2021/08/08 00:27:39;;;;;;;;;;;;;;;26.54;37.01;99971.55;462882;114;922571;-70
2021/08/08 00:28:45;;;;;;;;;;;;;;;26.52;36.74;99968.26;464255;114;923402;-71
2021/08/08 00:29:49;;;;;;;;;;;;;;;26.51;36.82;99973.05;462821;112;923143;-71
2021/08/08 00:30:53;;;;;;;;;;;;;;;26.50;36.70;99977.00;463408;113;923119;-71
2021/08/08 00:31:56;;;;;;;;;;;;;;;26.49;36.66;99985.72;462051;113;923082;-72
2021/08/08 00:33:00;;;;;;;;;;;;;;;26.48;36.63;99984.07;463685;114;923949;-71
2021/08/08 00:34:06;;;;;;;;;;;;;;;26.49;36.51;99985.72;462251;114;922626;-71
2021/08/08 00:35:10;;;;;;;;;;;;;;;26.50;36.46;99987.36;463057;113;923154;-71
2021/08/08 00:36:14;;;;;;;;;;;;;;;26.51;36.48;99987.04;463654;114;923713;-71
2021/08/08 00:37:18;;;;;;;;;;;;;;;26.52;36.62;99980.27;462849;115;922669;-72
2021/08/08 00:38:22;;;;;;;;;;;;;;;26.55;36.50;99984.38;463637;115;923557;-71
2021/08/08 00:39:26;;;;;;;;;;;;;;;26.56;36.46;99978.45;463843;113;923694;-71
2021/08/08 00:40:30;;;;;;;;;;;;;;;26.59;36.44;99982.55;464336;112;922745;-73
2021/08/08 00:41:34;;;;;;;;;;;;;;;26.60;36.30;99980.57;464135;112;922515;-72
2021/08/08 00:42:38;;;;;;;;;;;;;;;26.61;36.30;99983.04;456625;114;922644;-72
2021/08/08 00:43:42;;;;;;;;;;;;;;;26.62;36.36;99987.48;457091;115;922628;-73
2021/08/08 00:44:45;;;;;;;;;;;;;;;26.64;36.35;99998.31;462603;115;922712;-72
2021/08/08 00:45:50;;;;;;;;;;;;;;;26.65;36.35;99991.56;463356;112;922539;-71
2021/08/08 00:46:57;;;;;;;;;;;;;;;26.65;36.10;99980.38;462610;113;921504;-72
2021/08/08 00:48:02;;;;;;;;;;;;;;;26.65;36.02;99977.58;463821;112;921475;-72
2021/08/08 00:49:07;;;;;;;;;;;;;;;26.65;36.00;99975.61;463498;115;922639;-70
2021/08/08 00:50:11;;;;;;;;;;;;;;;26.67;35.95;99975.28;463718;114;921571;-71
2021/08/08 00:51:14;;;;;;;;;;;;;;;26.66;35.94;99974.46;463272;114;921432;-71
2021/08/08 00:52:19;;;;;;;;;;;;;;;26.66;35.93;99977.26;462014;112;921838;-71
2021/08/08 00:53:23;;;;;;;;;;;;;;;26.67;35.84;99983.67;458036;115;921442;-71
2021/08/08 00:54:26;;;;;;;;;;;;;;;26.66;35.85;99984.82;457952;115;921408;-71
2021/08/08 00:55:30;;;;;;;;;;;;;;;26.65;35.77;99978.41;457834;116;921561;-71
2021/08/08 00:56:35;;;;;;;;;;;;;;;26.65;35.67;99970.02;458684;116;921500;-73
2021/08/08 00:57:39;;;;;;;;;;;;;;;26.64;35.70;99959.16;458506;113;921463;-70
2021/08/08 00:58:42;;;;;;;;;;;;;;;26.64;35.75;99957.19;457881;114;921524;-72
2021/08/08 00:59:46;;;;;;;;;;;;;;;26.63;35.69;99947.15;457902;116;921449;-72
2021/08/08 01:00:51;;;;;;;;;;;;;;;26.63;35.76;99941.56;458771;114;921450;-72
2021/08/08 01:01:55;;;;;;;;;;;;;;;26.62;35.76;99937.15;458186;114;921763;-72
2021/08/08 01:03:00;;;;;;;;;;;;;;;26.62;35.76;99939.12;457192;116;921620;-72
2021/08/08 01:04:07;;;;;;;;;;;;;;;26.61;35.82;99938.30;456930;114;921631;-72
2021/08/08 01:05:14;;;;;;;;;;;;;;;26.59;35.89;99943.39;458303;113;921421;-73
2021/08/08 01:06:19;;;;;;;;;;;;;;;26.58;35.95;99952.94;456300;113;921560;-72
2021/08/08 01:07:24;;;;;;;;;;;;;;;26.57;36.03;99957.70;457200;113;921552;-73
2021/08/08 01:08:30;;;;;;;;;;;;;;;26.57;36.13;99954.91;457145;116;921731;-73
2021/08/08 01:09:36;;;;;;;;;;;;;;;26.57;36.15;99963.30;458039;114;922638;-73
2021/08/08 01:10:40;;;;;;;;;;;;;;;26.59;36.21;99957.38;457604;113;921411;-73
2021/08/08 01:11:44;;;;;;;;;;;;;;;26.58;36.21;99955.73;457839;113;923084;-73
2021/08/08 01:12:49;;;;;;;;;;;;;;;26.60;36.27;99947.02;458480;116;921520;-73
2021/08/08 01:13:55;;;;;;;;;;;;;;;26.59;36.27;99951.78;457960;116;923161;-73
2021/08/08 01:14:59;;;;;;;;;;;;;;;26.60;36.39;99952.61;457365;114;921553;-71
2021/08/08 01:16:03;;;;;;;;;;;;;;;26.60;36.48;99959.02;457129;113;922683;-72
2021/08/08 01:17:08;;;;;;;;;;;;;;;26.61;36.53;99965.44;458425;116;922609;-72
2021/08/08 01:18:14;;;;;;;;;;;;;;;26.60;36.65;99984.19;457829;115;922745;-72
2021/08/08 01:19:19;;;;;;;;;;;;;;;26.61;36.66;99997.02;457560;113;924804;-71
2021/08/08 01:20:25;;;;;;;;;;;;;;;26.61;36.71;100008.20;457152;116;922726;-70
2021/08/08 01:21:31;;;;;;;;;;;;;;;26.61;36.94;100007.39;455850;116;922693;-71
2021/08/08 01:22:40;;;;;;;;;;;;;;;26.60;37.12;100008.53;456823;114;923184;-71
2021/08/08 01:23:45;;;;;;;;;;;;;;;26.61;37.20;100016.59;457531;115;923049;-71
2021/08/08 01:24:49;;;;;;;;;;;;;;;26.61;37.24;100024.98;464291;114;923158;-71
2021/08/08 01:25:53;;;;;;;;;;;;;;;26.62;37.32;100029.43;463175;114;922610;-71
2021/08/08 01:26:57;;;;;;;;;;;;;;;26.64;37.36;100037.46;455995;116;922741;-70
2021/08/08 01:28:01;;;;;;;;;;;;;;;26.65;37.37;100042.73;457692;113;922611;-71
2021/08/08 01:29:06;;;;;;;;;;;;;;;26.65;37.42;100042.73;456956;114;922578;-70
2021/08/08 01:30:10;;;;;;;;;;;;;;;26.65;37.53;100044.70;458543;116;921476;-71
2021/08/08 01:31:13;;;;;;;;;;;;;;;26.65;37.65;100042.73;458203;113;921466;-71
2021/08/08 01:32:17;;;;;;;;;;;;;;;26.64;37.59;100043.87;456777;116;921510;-71
2021/08/08 01:33:20;;;;;;;;;;;;;;;26.62;37.42;100046.20;458492;116;921473;-71
2021/08/08 01:34:26;;;;;;;;;;;;;;;26.62;37.39;100040.62;457528;113;923082;-70
2021/08/08 01:35:32;;;;;;;;;;;;;;;26.64;37.59;100051.45;457918;114;921587;-72
2021/08/08 01:36:35;;;;;;;;;;;;;;;26.63;37.83;100047.83;456764;114;923588;-70
2021/08/08 01:37:39;;;;;;;;;;;;;;;26.65;37.92;100058.69;457650;115;921670;-71
2021/08/08 01:38:44;;;;;;;;;;;;;;;26.65;37.98;100061.48;449933;116;921621;-71
2021/08/08 01:39:50;;;;;;;;;;;;;;;26.65;38.07;100061.48;449894;116;922699;-71
2021/08/08 01:41:03;;;;;;;;;;;;;;;26.64;38.27;100066.25;457050;116;922633;-72
2021/08/08 01:42:21;;;;;;;;;;;;;;;26.65;38.49;100069.88;458128;115;922650;-72
2021/08/08 01:43:27;;;;;;;;;;;;;;;26.66;38.71;100074.31;447962;117;922666;-72
2021/08/08 01:44:39;;;;;;;;;;;;;;;26.65;38.77;100084.68;447122;116;921586;-72
2021/08/08 01:45:43;;;;;;;;;;;;;;;26.63;38.80;100092.57;456352;114;921458;-73
2021/08/08 01:46:51;;;;;;;;;;;;;;;26.62;38.91;100093.75;457967;116;921506;-70
2021/08/08 01:47:59;;;;;;;;;;;;;;;26.60;39.10;100098.02;456671;114;921473;-71
2021/08/08 01:49:03;;;;;;;;;;;;;;;26.57;39.25;100102.32;457930;113;921445;-72
2021/08/08 01:50:07;;;;;;;;;;;;;;;26.56;39.41;100109.06;458007;116;921552;-71
2021/08/08 01:51:11;;;;;;;;;;;;;;;26.55;39.48;100108.23;457439;114;921480;-71
2021/08/08 01:52:14;;;;;;;;;;;;;;;26.52;39.61;100111.68;457245;115;921777;-71
2021/08/08 01:53:19;;;;;;;;;;;;;;;26.51;39.84;100112.86;463104;114;921527;-71
2021/08/08 01:54:23;;;;;;;;;;;;;;;26.48;40.00;100105.12;467824;113;921523;-72
2021/08/08 01:55:29;;;;;;;;;;;;;;;26.45;40.24;100114.19;466905;112;921468;-72
2021/08/08 01:56:35;;;;;;;;;;;;;;;26.42;40.36;100108.41;467016;112;921457;-71
2021/08/08 01:57:39;;;;;;;;;;;;;;;26.39;40.51;100100.70;466797;112;921427;-71
2021/08/08 01:58:44;;;;;;;;;;;;;;;26.37;40.60;100105.80;466696;114;921416;-71
2021/08/08 01:59:49;;;;;;;;;;;;;;;26.33;40.71;100102.85;466572;112;924080;-70
2021/08/08 02:00:55;;;;;;;;;;;;;;;26.31;40.85;100101.53;466728;113;922616;-71
2021/08/08 02:02:08;;;;;;;;;;;;;;;26.29;40.96;100087.08;467252;114;922628;-71
2021/08/08 02:03:13;;;;;;;;;;;;;;;26.27;41.11;100087.41;457303;116;922699;-71
2021/08/08 02:04:19;;;;;;;;;;;;;;;26.26;40.99;100082.96;457582;114;921654;-71
2021/08/08 02:05:26;;;;;;;;;;;;;;;26.25;41.00;100075.72;466950;113;921520;-71
2021/08/08 02:06:30;;;;;;;;;;;;;;;26.25;41.00;100075.72;466328;114;923124;-71
2021/08/08 02:07:35;;;;;;;;;;;;;;;26.25;41.05;100072.10;466108;113;922635;-72
2021/08/08 02:08:40;;;;;;;;;;;;;;;26.24;41.22;100079.70;458766;114;922683;-72
2021/08/08 02:09:45;;;;;;;;;;;;;;;26.25;41.18;100075.72;459015;114;922627;-72
2021/08/08 02:10:49;;;;;;;;;;;;;;;26.24;40.97;100079.70;461725;114;922683;-71
2021/08/08 02:11:54;;;;;;;;;;;;;;;26.23;40.94;100077.22;460778;113;922624;-72
2021/08/08 02:12:59;;;;;;;;;;;;;;;26.23;41.06;100071.63;448499;116;923199;-70
2021/08/08 02:14:04;;;;;;;;;;;;;;;26.22;40.99;100065.19;460963;114;922501;-72
2021/08/08 02:15:10;;;;;;;;;;;;;;;26.21;40.84;100060.75;465837;113;922712;-72
2021/08/08 02:16:15;;;;;;;;;;;;;;;26.20;40.81;100063.86;465526;113;922631;-72
2021/08/08 02:17:20;;;;;;;;;;;;;;;26.18;40.84;100044.66;466508;114;922732;-71
2021/08/08 02:18:25;;;;;;;;;;;;;;;26.18;40.87;100049.42;466908;114;922634;-71
2021/08/08 02:19:29;;;;;;;;;;;;;;;26.17;40.91;100043.01;466304;112;922525;-71
2021/08/08 02:20:34;;;;;;;;;;;;;;;26.15;40.90;100048.92;464969;113;923088;-71
2021/08/08 02:21:39;;;;;;;;;;;;;;;26.13;40.96;100050.42;457896;114;922634;-69
2021/08/08 02:22:45;;;;;;;;;;;;;;;26.10;41.00;100054.69;451363;116;922670;-73
2021/08/08 02:23:49;;;;;;;;;;;;;;;26.09;41.20;100049.41;459537;114;922807;-72
2021/08/08 02:24:55;;;;;;;;;;;;;;;26.06;41.34;100045.33;466208;113;922632;-72
2021/08/08 02:26:00;;;;;;;;;;;;;;;26.03;41.58;100040.38;465902;112;922671;-71
2021/08/08 02:27:06;;;;;;;;;;;;;;;25.98;41.70;100042.52;466387;110;923084;-71
2021/08/08 02:28:10;;;;;;;;;;;;;;;25.92;41.77;100039.08;465733;112;922673;-71
2021/08/08 02:29:15;;;;;;;;;;;;;;;25.89;41.86;100036.96;466090;113;922631;-70
2021/08/08 02:30:20;;;;;;;;;;;;;;;25.87;41.95;100035.63;466662;113;921546;-71
2021/08/08 02:31:23;;;;;;;;;;;;;;;25.86;42.03;100034.02;465991;112;922688;-70
2021/08/08 02:32:28;;;;;;;;;;;;;;;25.84;42.08;100034.34;466397;113;923233;-71
2021/08/08 02:33:32;;;;;;;;;;;;;;;25.84;42.17;100027.92;466456;113;922681;-71
2021/08/08 02:34:36;;;;;;;;;;;;;;;25.84;42.26;100020.37;466990;113;922690;-71
2021/08/08 02:35:40;;;;;;;;;;;;;;;25.83;42.32;100020.69;465666;113;922603;-71
2021/08/08 02:36:44;;;;;;;;;;;;;;;25.82;42.61;100011.48;465357;113;922697;-69
2021/08/08 02:37:48;;;;;;;;;;;;;;;25.80;42.51;100008.23;460842;114;921956;-70
2021/08/08 02:38:53;;;;;;;;;;;;;;;25.78;42.75;100004.11;454308;116;921524;-71
2021/08/08 02:39:56;;;;;;;;;;;;;;;25.76;42.83;100007.22;458827;114;921550;-70
2021/08/08 02:40:59;;;;;;;;;;;;;;;25.75;42.95;100000.81;466254;113;921458;-71
2021/08/08 02:42:03;;;;;;;;;;;;;;;25.74;43.00;100009.55;466880;114;921458;-71
2021/08/08 02:43:07;;;;;;;;;;;;;;;25.74;43.03;100006.75;467080;113;921524;-71
2021/08/08 02:44:11;;;;;;;;;;;;;;;25.74;43.17;100010.36;460010;114;921541;-70
2021/08/08 02:45:14;;;;;;;;;;;;;;;25.75;43.28;100003.60;461337;114;921448;-71
2021/08/08 02:46:17;;;;;;;;;;;;;;;25.76;43.31;100004.43;459565;115;921616;-71
2021/08/08 02:47:21;;;;;;;;;;;;;;;25.78;43.50;100004.93;459757;112;921927;-70
2021/08/08 02:48:24;;;;;;;;;;;;;;;25.79;43.61;100000.99;455308;114;921566;-71
2021/08/08 02:49:27;;;;;;;;;;;;;;;25.80;43.67;99994.27;457432;114;921551;-70
2021/08/08 02:50:31;;;;;;;;;;;;;;;25.80;43.77;99983.09;466245;114;921550;-70
2021/08/08 02:51:35;;;;;;;;;;;;;;;25.80;43.97;99974.72;457221;114;921522;-70
2021/08/08 02:52:41;;;;;;;;;;;;;;;25.80;44.02;99973.89;450673;115;921576;-70
2021/08/08 02:53:44;;;;;;;;;;;;;;;25.79;44.11;99966.66;460740;114;921511;-71
2021/08/08 02:54:47;;;;;;;;;;;;;;;25.78;44.15;99960.25;464347;114;921343;-71
2021/08/08 02:55:50;;;;;;;;;;;;;;;25.79;44.30;99969.45;463255;114;921368;-71
2021/08/08 02:56:54;;;;;;;;;;;;;;;25.79;44.39;99963.86;464025;114;922627;-71
2021/08/08 02:57:57;;;;;;;;;;;;;;;25.78;44.44;99960.25;464171;113;922682;-70
2021/08/08 02:59:01;;;;;;;;;;;;;;;25.79;44.48;99970.27;463675;114;922640;-71
2021/08/08 03:00:05;;;;;;;;;;;;;;;25.79;44.40;99963.86;463824;113;922732;-69
2021/08/08 03:01:10;;;;;;;;;;;;;;;25.78;44.45;99963.04;462831;113;921505;-71
2021/08/08 03:02:14;;;;;;;;;;;;;;;25.79;44.55;99961.07;463825;113;921941;-71
2021/08/08 03:03:17;;;;;;;;;;;;;;;25.78;44.47;99954.66;464822;113;921439;-71
2021/08/08 03:04:21;;;;;;;;;;;;;;;25.80;44.55;99962.72;461042;113;921694;-72
2021/08/08 03:05:26;;;;;;;;;;;;;;;25.81;44.54;99959.57;462686;112;922866;-72
2021/08/08 03:06:30;;;;;;;;;;;;;;;25.81;44.53;99958.75;462314;113;923338;-69
2021/08/08 03:07:34;;;;;;;;;;;;;;;25.81;44.51;99953.16;463711;114;923210;-72
2021/08/08 03:08:39;;;;;;;;;;;;;;;25.81;44.49;99955.95;463090;114;922862;-71
2021/08/08 03:09:43;;;;;;;;;;;;;;;25.81;44.65;99953.98;453536;116;922674;-71
2021/08/08 03:10:46;;;;;;;;;;;;;;;25.82;44.60;99952.84;457165;115;922730;-71
2021/08/08 03:11:50;;;;;;;;;;;;;;;25.83;44.72;99951.69;462151;114;922691;-71
2021/08/08 03:12:55;;;;;;;;;;;;;;;25.83;44.67;99948.90;463481;111;922748;-71
2021/08/08 03:13:59;;;;;;;;;;;;;;;25.85;44.62;99963.36;463800;113;923139;-71
2021/08/08 03:15:03;;;;;;;;;;;;;;;25.87;44.63;99965.80;463930;115;922005;-70
2021/08/08 03:16:07;;;;;;;;;;;;;;;25.87;44.66;99957.42;463897;113;922650;-71
2021/08/08 03:17:11;;;;;;;;;;;;;;;25.88;44.64;99964.66;461515;114;922694;-69
2021/08/08 03:18:15;;;;;;;;;;;;;;;25.88;44.67;99964.66;463288;113;922717;-71
2021/08/08 03:19:18;;;;;;;;;;;;;;;25.88;44.68;99973.86;461188;115;922745;-71
2021/08/08 03:20:22;;;;;;;;;;;;;;;25.89;44.65;99978.30;461393;114;922684;-71
2021/08/08 03:21:27;;;;;;;;;;;;;;;25.89;44.62;99985.86;462494;113;923623;-72
2021/08/08 03:22:31;;;;;;;;;;;;;;;25.89;44.63;99992.27;462802;114;922631;-71
2021/08/08 03:23:35;;;;;;;;;;;;;;;25.90;44.69;99995.89;462988;115;922616;-70
2021/08/08 03:24:38;;;;;;;;;;;;;;;25.90;44.76;99999.50;462595;113;921390;-72
2021/08/08 03:25:42;;;;;;;;;;;;;;;25.91;44.85;100011.50;462380;114;922587;-70
2021/08/08 03:26:46;;;;;;;;;;;;;;;25.90;44.96;100005.09;463115;114;923059;-70
2021/08/08 03:27:50;;;;;;;;;;;;;;;25.91;45.11;100025.47;461991;111;922663;-70
2021/08/08 03:28:56;;;;;;;;;;;;;;;25.91;45.32;100029.08;462273;114;922638;-69
2021/08/08 03:30:00;;;;;;;;;;;;;;;25.90;45.45;100035.81;463118;114;921462;-71
2021/08/08 03:31:03;;;;;;;;;;;;;;;25.91;45.54;100045.84;463126;113;923120;-70
2021/08/08 03:32:07;;;;;;;;;;;;;;;25.91;45.62;100058.98;462669;113;922667;-69
2021/08/08 03:33:12;;;;;;;;;;;;;;;25.90;45.73;100065.72;463875;114;921900;-71
2021/08/08 03:34:15;;;;;;;;;;;;;;;25.90;45.80;100077.72;462508;113;922526;-70
2021/08/08 03:35:19;;;;;;;;;;;;;;;25.89;45.94;100084.45;463070;113;921572;-70
2021/08/08 03:36:23;;;;;;;;;;;;;;;25.89;46.02;100089.21;463811;114;921432;-70
2021/08/08 03:37:26;;;;;;;;;;;;;;;25.88;46.09;100093.15;463293;113;921481;-69
2021/08/08 03:38:29;;;;;;;;;;;;;;;25.87;46.13;100097.91;463345;113;921484;-70
2021/08/08 03:39:32;;;;;;;;;;;;;;;25.87;46.20;100099.88;464208;113;921533;-71
2021/08/08 03:40:36;;;;;;;;;;;;;;;25.86;46.17;100098.27;463855;113;921473;-71
2021/08/08 03:41:39;;;;;;;;;;;;;;;25.85;46.20;100099.41;464024;114;921459;-72
2021/08/08 03:42:43;;;;;;;;;;;;;;;25.82;46.16;100100.87;463298;114;921684;-72
2021/08/08 03:43:46;;;;;;;;;;;;;;;25.79;46.19;100095.95;464575;115;921533;-71
2021/08/08 03:44:52;;;;;;;;;;;;;;;25.77;46.24;100098.23;464287;113;921627;-71
2021/08/08 03:45:55;;;;;;;;;;;;;;;25.73;46.31;100095.29;463992;114;921545;-70
2021/08/08 03:46:59;;;;;;;;;;;;;;;25.70;46.38;100100.69;462594;113;921540;-71
2021/08/08 03:48:03;;;;;;;;;;;;;;;25.67;46.46;100092.98;464398;113;921988;-71
2021/08/08 03:49:07;;;;;;;;;;;;;;;25.65;46.57;100092.47;462656;113;921592;-71
2021/08/08 03:50:11;;;;;;;;;;;;;;;25.65;46.70;100084.09;461722;113;921501;-71
2021/08/08 03:51:14;;;;;;;;;;;;;;;25.64;46.75;100090.82;462562;114;921635;-70
2021/08/08 03:52:18;;;;;;;;;;;;;;;25.64;46.81;100085.23;463812;115;921589;-71
2021/08/08 03:53:21;;;;;;;;;;;;;;;25.64;46.89;100083.27;462253;114;923530;-69
2021/08/08 03:54:26;;;;;;;;;;;;;;;25.65;46.93;100086.89;466486;114;921430;-71
2021/08/08 03:55:30;;;;;;;;;;;;;;;25.65;46.93;100089.68;465805;114;922800;-71
2021/08/08 03:56:36;;;;;;;;;;;;;;;25.64;47.05;100076.86;466416;114;921484;-71
2021/08/08 03:57:42;;;;;;;;;;;;;;;25.64;47.14;100080.48;466037;111;922578;-71
2021/08/08 03:58:47;;;;;;;;;;;;;;;25.64;47.13;100071.28;464851;113;923098;-71
2021/08/08 03:59:52;;;;;;;;;;;;;;;25.63;47.13;100076.06;465428;114;922708;-69
2021/08/08 04:01:05;;;;;;;;;;;;;;;25.64;47.13;100071.28;465925;113;922630;-71
2021/08/08 04:02:06;;;;;;;;;;;;;;;25.65;47.07;100070.13;465653;113;922653;-68
2021/08/08 04:03:10;;;;;;;;;;;;;;;25.64;47.08;100060.11;466788;113;922879;-71
2021/08/08 04:04:13;;;;;;;;;;;;;;;25.64;47.10;100052.55;464963;113;924024;-70
2021/08/08 04:05:16;;;;;;;;;;;;;;;25.65;47.20;100050.59;456828;114;922569;-69
2021/08/08 04:06:20;;;;;;;;;;;;;;;25.66;47.28;100039.09;443875;116;922715;-68
2021/08/08 04:07:25;;;;;;;;;;;;;;;25.67;47.35;100026.78;449328;115;922669;-70
2021/08/08 04:08:29;;;;;;;;;;;;;;;25.69;47.35;100020.88;452759;118;922677;-70
2021/08/08 04:09:33;;;;;;;;;;;;;;;25.71;47.47;100015.77;466797;112;922672;-70
2021/08/08 04:10:37;;;;;;;;;;;;;;;25.73;47.63;100011.51;465154;113;922783;-70
2021/08/08 04:11:41;;;;;;;;;;;;;;;25.77;47.69;100003.28;464896;113;922699;-71
2021/08/08 04:12:45;;;;;;;;;;;;;;;25.79;47.84;100003.78;456107;116;922649;-70
2021/08/08 04:13:50;;;;;;;;;;;;;;;25.82;47.88;99989.14;456308;114;922705;-70
2021/08/08 04:14:54;;;;;;;;;;;;;;;25.84;48.06;99984.06;465623;113;923583;-71
2021/08/08 04:15:58;;;;;;;;;;;;;;;25.83;48.10;99978.80;465344;113;922669;-71
2021/08/08 04:17:02;;;;;;;;;;;;;;;25.83;48.12;99979.63;465686;114;923203;-70
2021/08/08 04:18:05;;;;;;;;;;;;;;;25.83;48.21;99971.24;464650;113;921413;-71
2021/08/08 04:19:09;;;;;;;;;;;;;;;25.82;48.30;99977.98;466407;112;921514;-71
2021/08/08 04:20:13;;;;;;;;;;;;;;;25.82;48.33;99979.95;465276;114;921790;-72
2021/08/08 04:21:16;;;;;;;;;;;;;;;25.80;48.30;99980.30;465761;113;922689;-71
2021/08/08 04:22:20;;;;;;;;;;;;;;;25.79;48.30;100000.99;464569;112;923016;-71
2021/08/08 04:23:23;;;;;;;;;;;;;;;25.78;48.37;100013.31;466172;112;921516;-70
2021/08/08 04:24:27;;;;;;;;;;;;;;;25.78;48.31;100021.69;466366;114;923642;-70
2021/08/08 04:25:31;;;;;;;;;;;;;;;25.75;48.25;100031.53;465862;113;922654;-70
2021/08/08 04:26:34;;;;;;;;;;;;;;;25.74;48.27;100045.84;466068;113;922587;-71
2021/08/08 04:27:40;;;;;;;;;;;;;;;25.73;48.37;100053.41;466359;113;921540;-69
2021/08/08 04:28:44;;;;;;;;;;;;;;;25.73;48.49;100063.75;467807;114;921454;-71
2021/08/08 04:29:48;;;;;;;;;;;;;;;25.71;48.62;100063.24;467032;113;921615;-70
2021/08/08 04:30:51;;;;;;;;;;;;;;;25.70;48.70;100069.97;465296;112;921573;-70
2021/08/08 04:31:54;;;;;;;;;;;;;;;25.68;48.72;100077.87;465535;112;921317;-72
2021/08/08 04:32:58;;;;;;;;;;;;;;;25.66;48.80;100074.58;465819;110;921408;-71
2021/08/08 04:34:01;;;;;;;;;;;;;;;25.63;48.92;100076.06;463393;112;921712;-72
2021/08/08 04:35:05;;;;;;;;;;;;;;;25.63;49.01;100080.83;465399;114;921455;-71
2021/08/08 04:36:08;;;;;;;;;;;;;;;25.61;49.06;100077.53;466519;114;921523;-72
2021/08/08 04:37:11;;;;;;;;;;;;;;;25.60;48.99;100084.25;465863;114;921382;-71
2021/08/08 04:38:15;;;;;;;;;;;;;;;25.58;49.05;100086.58;464910;112;921578;-73
2021/08/08 04:39:18;;;;;;;;;;;;;;;25.55;49.09;100090.80;465500;112;921591;-71
2021/08/08 04:40:22;;;;;;;;;;;;;;;25.54;49.09;100082.73;465423;113;921453;-72
2021/08/08 04:41:25;;;;;;;;;;;;;;;25.52;49.14;100085.05;465518;113;921344;-72
2021/08/08 04:42:29;;;;;;;;;;;;;;;25.51;49.21;100083.40;460275;114;921808;-71
2021/08/08 04:43:33;;;;;;;;;;;;;;;25.49;49.31;100091.27;459230;113;921547;-72
2021/08/08 04:44:36;;;;;;;;;;;;;;;25.50;49.38;100090.12;466689;112;921450;-71
2021/08/08 04:45:40;;;;;;;;;;;;;;;25.50;49.44;100090.12;466632;114;921517;-72
2021/08/08 04:46:44;;;;;;;;;;;;;;;25.51;49.43;100077.81;466912;112;921397;-70
2021/08/08 04:47:47;;;;;;;;;;;;;;;25.51;49.36;100067.48;467112;113;922657;-71
2021/08/08 04:48:51;;;;;;;;;;;;;;;25.51;49.25;100064.69;466086;114;921577;-71
2021/08/08 04:49:55;;;;;;;;;;;;;;;25.52;49.21;100057.95;465536;113;922614;-71
2021/08/08 04:50:59;;;;;;;;;;;;;;;25.53;49.15;100051.20;465075;114;922684;-72
2021/08/08 04:52:03;;;;;;;;;;;;;;;25.56;49.18;100042.22;464540;114;921584;-71
2021/08/08 04:53:14;;;;;;;;;;;;;;;25.58;49.24;100039.91;465907;112;922710;-71
2021/08/08 04:54:18;;;;;;;;;;;;;;;25.61;49.25;100042.05;464034;112;921806;-70
2021/08/08 04:55:21;;;;;;;;;;;;;;;25.63;49.26;100036.98;462548;114;922754;-72
2021/08/08 04:56:25;;;;;;;;;;;;;;;25.64;49.24;100035.80;463857;114;922637;-71
2021/08/08 04:57:28;;;;;;;;;;;;;;;25.65;49.22;100036.63;463688;114;923220;-70
2021/08/08 04:58:32;;;;;;;;;;;;;;;25.65;49.19;100039.42;462892;114;922765;-71
2021/08/08 04:59:36;;;;;;;;;;;;;;;25.65;49.13;100034.66;463106;114;922669;-71
2021/08/08 05:00:39;;;;;;;;;;;;;;;25.64;49.02;100041.39;463492;112;922698;-71
2021/08/08 05:01:43;;;;;;;;;;;;;;;25.64;49.03;100030.22;463294;113;923091;-71
2021/08/08 05:02:48;;;;;;;;;;;;;;;25.66;49.04;100035.48;462883;113;921635;-69
2021/08/08 05:03:52;;;;;;;;;;;;;;;25.68;49.08;100036.81;463043;115;922719;-71
2021/08/08 05:04:56;;;;;;;;;;;;;;;25.70;48.97;100036.46;463497;114;922831;-72
2021/08/08 05:05:59;;;;;;;;;;;;;;;25.72;48.94;100040.58;462939;114;921587;-71
2021/08/08 05:07:03;;;;;;;;;;;;;;;25.74;48.85;100038.30;462871;113;922959;-71
2021/08/08 05:08:07;;;;;;;;;;;;;;;25.78;48.71;100035.65;463292;115;922655;-70
2021/08/08 05:09:12;;;;;;;;;;;;;;;25.82;48.65;100031.05;463392;114;922598;-71
2021/08/08 05:10:18;;;;;;;;;;;;;;;25.85;48.59;100029.58;461449;114;922742;-71
2021/08/08 05:11:23;;;;;;;;;;;;;;;25.89;48.39;100030.55;463099;113;922600;-71
2021/08/08 05:12:28;;;;;;;;;;;;;;;25.94;48.22;100030.37;464003;115;922665;-70
2021/08/08 05:13:34;;;;;;;;;;;;;;;25.97;48.10;100021.32;464397;113;922660;-71
2021/08/08 05:14:38;;;;;;;;;;;;;;;26.01;47.90;100025.12;463152;114;922682;-72
2021/08/08 05:15:42;;;;;;;;;;;;;;;26.06;47.76;100024.95;462059;114;922701;-72
2021/08/08 05:16:46;;;;;;;;;;;;;;;26.12;47.70;100037.59;464139;112;922585;-70
2021/08/08 05:17:50;;;;;;;;;;;;;;;26.17;47.58;100031.83;462844;114;922699;-70
2021/08/08 05:18:54;;;;;;;;;;;;;;;26.22;47.56;100034.45;463692;114;922733;-70
2021/08/08 05:19:57;;;;;;;;;;;;;;;26.27;47.60;100034.30;462612;114;922657;-71
2021/08/08 05:21:01;;;;;;;;;;;;;;;26.31;47.45;100028.85;463356;115;922661;-70
2021/08/08 05:22:05;;;;;;;;;;;;;;;26.35;47.42;100029.85;461949;114;922534;-71
2021/08/08 05:23:09;;;;;;;;;;;;;;;26.38;47.44;100024.41;453951;114;921571;-71
2021/08/08 05:24:12;;;;;;;;;;;;;;;26.43;47.43;100028.98;454918;114;921619;-71
2021/08/08 05:25:15;;;;;;;;;;;;;;;26.47;47.05;100024.36;464877;114;921868;-70
2021/08/08 05:26:19;;;;;;;;;;;;;;;26.50;46.70;100030.13;464054;114;921474;-72
2021/08/08 05:27:23;;;;;;;;;;;;;;;26.53;46.55;100028.62;463645;113;921428;-71
2021/08/08 05:28:26;;;;;;;;;;;;;;;26.55;46.56;100029.94;463052;115;921333;-72